createdAt,value
2019-01-29T00:00:58.790Z,2.40
2019-01-29T00:03:27.785Z,2.40
2019-01-29T00:05:56.796Z,2.50
2019-01-29T00:08:25.749Z,2.50
2019-01-29T00:10:54.687Z,2.60
2019-01-29T00:13:23.688Z,2.40
2019-01-29T00:15:52.705Z,2.40
2019-01-29T00:18:21.700Z,2.40
2019-01-29T00:20:50.636Z,2.40
2019-01-29T00:23:19.561Z,2.40
2019-01-29T00:25:48.488Z,2.40
2019-01-29T00:28:17.348Z,2.30
2019-01-29T00:30:46.277Z,2.30
2019-01-29T00:33:15.604Z,2.20
2019-01-29T00:35:44.528Z,2.10
2019-01-29T00:38:13.797Z,2.10
2019-01-29T00:40:42.720Z,2.20
2019-01-29T00:43:11.989Z,2.20
2019-01-29T00:45:40.983Z,2.30
2019-01-29T00:48:10.001Z,2.30
2019-01-29T00:50:39.276Z,2.50
2019-01-29T00:53:08.288Z,2.40
2019-01-29T00:55:37.565Z,2.40
2019-01-29T00:58:06.652Z,2.30
2019-01-29T01:00:35.665Z,2.30
2019-01-29T01:03:05.187Z,2.30
2019-01-29T01:05:34.186Z,2.20
2019-01-29T01:08:03.212Z,2.20
2019-01-29T01:10:32.152Z,2.30
2019-01-29T01:13:01.089Z,2.30
2019-01-29T01:15:30.095Z,2.30
2019-01-29T01:17:59.046Z,2.30
2019-01-29T01:20:28.047Z,2.30
2019-01-29T01:22:57.313Z,2.40
2019-01-29T01:25:26.245Z,2.40
2019-01-29T01:27:55.588Z,2.40
2019-01-29T01:30:24.600Z,2.40
2019-01-29T01:32:53.820Z,2.30
2019-01-29T01:35:23.100Z,2.40
2019-01-29T01:37:51.967Z,2.40
2019-01-29T01:40:22.801Z,2.50
2019-01-29T01:42:51.840Z,2.60
2019-01-29T01:45:20.844Z,2.60
2019-01-29T01:47:50.022Z,2.60
2019-01-29T01:50:19.044Z,2.50
2019-01-29T01:52:48.057Z,2.50
2019-01-29T01:55:18.600Z,2.50
2019-01-29T01:57:47.933Z,2.50
2019-01-29T02:00:19.176Z,2.30
2019-01-29T02:02:48.197Z,2.20
2019-01-29T02:05:17.205Z,2.30
2019-01-29T02:07:46.787Z,2.40
2019-01-29T02:10:22.600Z,2.40
2019-01-29T02:12:51.643Z,2.40
2019-01-29T02:15:20.669Z,2.40
2019-01-29T02:17:49.709Z,2.30
2019-01-29T02:20:18.965Z,2.40
2019-01-29T02:22:48.034Z,2.40
2019-01-29T02:25:17.057Z,2.40
2019-01-29T02:27:46.416Z,2.40
2019-01-29T02:30:17.739Z,2.40
2019-01-29T02:32:46.793Z,2.20
2019-01-29T02:35:16.149Z,2.20
2019-01-29T02:37:45.185Z,2.10
2019-01-29T02:40:25.785Z,2.20
2019-01-29T02:42:54.824Z,2.30
2019-01-29T02:45:24.154Z,2.30
2019-01-29T02:47:53.197Z,2.20
2019-01-29T02:50:22.217Z,2.10
2019-01-29T02:52:51.251Z,2.20
2019-01-29T02:55:20.690Z,2.20
2019-01-29T02:57:49.734Z,2.20
2019-01-29T03:00:24.077Z,2.20
2019-01-29T03:02:53.110Z,2.20
2019-01-29T03:05:22.153Z,2.20
2019-01-29T03:07:52.011Z,2.20
2019-01-29T03:10:23.254Z,2.20
2019-01-29T03:12:52.402Z,2.30
2019-01-29T03:15:29.728Z,2.30
2019-01-29T03:17:59.043Z,2.30
2019-01-29T03:20:28.501Z,2.40
2019-01-29T03:22:57.541Z,2.40
2019-01-29T03:25:26.837Z,2.40
2019-01-29T03:27:56.145Z,2.40
2019-01-29T03:30:25.234Z,2.20
2019-01-29T03:32:54.423Z,2.10
2019-01-29T03:35:23.540Z,2.00
2019-01-29T03:37:52.767Z,1.90
2019-01-29T03:40:23.835Z,1.90
2019-01-29T03:42:52.848Z,1.90
2019-01-29T03:45:22.189Z,1.80
2019-01-29T03:47:51.184Z,1.90
2019-01-29T03:50:21.006Z,2.00
2019-01-29T03:52:50.885Z,1.90
2019-01-29T03:55:19.904Z,1.80
2019-01-29T03:57:49.120Z,1.80
2019-01-29T04:00:23.896Z,1.90
2019-01-29T04:02:53.278Z,1.80
2019-01-29T04:05:22.213Z,1.80
2019-01-29T04:07:51.237Z,1.80
2019-01-29T04:10:20.649Z,1.80
2019-01-29T04:12:49.665Z,1.80
2019-01-29T04:15:19.494Z,1.90
2019-01-29T04:17:50.499Z,1.90
2019-01-29T04:20:20.776Z,1.90
2019-01-29T04:22:50.084Z,2.00
2019-01-29T04:25:19.561Z,2.10
2019-01-29T04:27:49.003Z,2.00
2019-01-29T04:30:20.005Z,1.90
2019-01-29T04:32:49.000Z,1.90
2019-01-29T04:35:18.312Z,1.90
2019-01-29T04:37:47.616Z,2.00
2019-01-29T04:40:18.447Z,2.10
2019-01-29T04:42:47.438Z,2.00
2019-01-29T04:45:16.893Z,2.00
2019-01-29T04:47:46.281Z,2.00
2019-01-29T04:50:17.486Z,1.90
2019-01-29T04:52:46.477Z,1.80
2019-01-29T04:55:15.626Z,1.80
2019-01-29T04:57:44.693Z,1.80
2019-01-29T05:00:16.320Z,1.90
2019-01-29T05:02:45.546Z,1.80
2019-01-29T05:05:14.905Z,1.80
2019-01-29T05:07:44.191Z,1.90
2019-01-29T05:10:13.797Z,1.90
2019-01-29T05:12:42.722Z,1.90
2019-01-29T05:15:13.653Z,1.90
2019-01-29T05:17:42.981Z,2.00
2019-01-29T05:20:14.505Z,2.00
2019-01-29T05:22:43.500Z,2.00
2019-01-29T05:25:12.827Z,2.00
2019-01-29T05:27:42.132Z,2.00
2019-01-29T05:30:14.392Z,2.00
2019-01-29T05:32:43.739Z,2.00
2019-01-29T05:35:12.760Z,1.90
2019-01-29T05:37:41.771Z,1.90
2019-01-29T05:40:13.330Z,2.00
2019-01-29T05:42:42.348Z,2.00
2019-01-29T05:45:13.371Z,1.90
2019-01-29T05:47:42.372Z,1.90
2019-01-29T05:50:12.703Z,1.90
2019-01-29T05:52:41.732Z,1.90
2019-01-29T05:55:10.960Z,2.10
2019-01-29T05:57:39.900Z,2.20
2019-01-29T06:00:13.429Z,2.20
2019-01-29T06:02:42.368Z,2.00
2019-01-29T06:05:11.775Z,2.10
2019-01-29T06:07:40.792Z,2.00
2019-01-29T06:10:10.261Z,2.00
2019-01-29T06:12:39.268Z,2.00
2019-01-29T06:15:10.405Z,1.90
2019-01-29T06:17:39.426Z,1.80
2019-01-29T06:20:12.444Z,1.90
2019-01-29T06:22:41.458Z,1.90
2019-01-29T06:25:10.483Z,1.80
2019-01-29T06:27:39.494Z,1.80
2019-01-29T06:30:10.391Z,1.80
2019-01-29T06:32:39.404Z,1.80
2019-01-29T06:35:10.760Z,1.80
2019-01-29T06:37:39.689Z,1.90
2019-01-29T06:40:10.517Z,1.90
2019-01-29T06:42:39.457Z,1.80
2019-01-29T06:45:11.329Z,1.90
2019-01-29T06:47:40.540Z,1.90
2019-01-29T06:50:11.965Z,2.00
2019-01-29T06:52:41.284Z,2.00
2019-01-29T06:55:12.218Z,1.90
2019-01-29T06:57:41.424Z,1.80
2019-01-29T07:00:13.612Z,1.80
2019-01-29T07:02:42.672Z,1.80
2019-01-29T07:05:11.872Z,1.70
2019-01-29T07:07:41.492Z,1.90
2019-01-29T07:10:12.034Z,1.90
2019-01-29T07:12:41.068Z,1.90
2019-01-29T07:15:14.029Z,1.80
2019-01-29T07:17:47.406Z,1.70
2019-01-29T07:20:16.441Z,1.60
2019-01-29T07:22:45.460Z,1.60
2019-01-29T07:25:14.452Z,1.60
2019-01-29T07:27:43.992Z,1.50
2019-01-29T07:30:14.689Z,1.70
2019-01-29T07:32:43.621Z,1.60
2019-01-29T07:35:12.615Z,1.60
2019-01-29T07:37:41.615Z,1.50
2019-01-29T07:40:10.773Z,1.60
2019-01-29T07:42:39.806Z,1.70
2019-01-29T07:45:09.046Z,1.70
2019-01-29T07:47:38.064Z,1.70
2019-01-29T07:50:07.568Z,1.70
2019-01-29T07:52:36.892Z,1.50
2019-01-29T07:55:06.096Z,1.60
2019-01-29T07:57:35.391Z,1.60
2019-01-29T08:00:04.856Z,1.60
2019-01-29T08:02:33.803Z,1.40
2019-01-29T08:05:02.741Z,1.30
2019-01-29T08:07:31.777Z,1.00
2019-01-29T08:10:00.974Z,1.10
2019-01-29T08:12:30.004Z,1.20
2019-01-29T08:14:59.169Z,1.30
2019-01-29T08:17:28.472Z,1.30
2019-01-29T08:19:57.670Z,1.30
2019-01-29T08:22:26.609Z,1.30
2019-01-29T08:25:01.800Z,1.40
2019-01-29T08:27:26.594Z,1.50
2019-01-29T08:29:55.789Z,1.50
2019-01-29T08:32:24.811Z,1.50
2019-01-29T08:34:53.812Z,1.60
2019-01-29T08:37:22.758Z,1.60
2019-01-29T08:39:51.602Z,1.60
2019-01-29T08:42:20.599Z,1.60
2019-01-29T08:44:49.448Z,1.60
2019-01-29T08:47:18.740Z,1.70
2019-01-29T08:49:48.044Z,1.70
2019-01-29T08:52:16.977Z,1.80
2019-01-29T08:54:47.646Z,1.90
2019-01-29T08:57:17.277Z,1.80
2019-01-29T08:59:46.248Z,1.90
2019-01-29T09:02:15.574Z,1.90
2019-01-29T09:04:44.773Z,1.90
2019-01-29T09:07:13.968Z,2.10
2019-01-29T09:09:43.314Z,2.20
2019-01-29T09:12:12.377Z,2.20
2019-01-29T09:14:41.389Z,2.40
2019-01-29T09:17:10.443Z,2.50
2019-01-29T09:19:39.465Z,2.50
2019-01-29T09:22:08.488Z,2.60
2019-01-29T09:24:37.428Z,2.90
2019-01-29T09:27:06.643Z,3.00
2019-01-29T09:29:35.709Z,3.20
2019-01-29T09:32:05.032Z,3.20
2019-01-29T09:34:34.051Z,3.40
2019-01-29T09:37:03.343Z,3.70
2019-01-29T09:39:32.359Z,4.10
2019-01-29T09:42:01.280Z,4.90
2019-01-29T09:44:30.608Z,5.80
2019-01-29T09:46:59.816Z,6.50
2019-01-29T09:49:29.121Z,7.20
2019-01-29T09:51:58.120Z,7.80
2019-01-29T09:54:27.143Z,8.30
2019-01-29T09:56:56.414Z,8.60
2019-01-29T09:59:25.356Z,8.60
2019-01-29T10:01:54.353Z,8.60
2019-01-29T10:04:23.580Z,8.70
2019-01-29T10:06:52.881Z,8.30
2019-01-29T10:09:22.080Z,8.30
2019-01-29T10:11:51.171Z,8.70
2019-01-29T10:14:20.183Z,8.60
2019-01-29T10:16:49.193Z,8.60
2019-01-29T10:19:18.608Z,8.90
2019-01-29T10:21:47.972Z,9.30
2019-01-29T10:24:17.008Z,9.20
2019-01-29T10:26:46.265Z,9.60
2019-01-29T10:29:15.207Z,9.80
2019-01-29T10:31:44.218Z,9.90
2019-01-29T10:34:13.087Z,10.00
2019-01-29T10:36:42.092Z,10.00
2019-01-29T10:39:11.354Z,10.00
2019-01-29T10:41:40.349Z,9.70
2019-01-29T10:44:09.300Z,10.20
2019-01-29T10:46:38.527Z,10.10
2019-01-29T10:49:07.819Z,10.00
2019-01-29T10:51:36.825Z,10.20
2019-01-29T10:54:05.933Z,10.50
2019-01-29T10:56:35.210Z,10.60
2019-01-29T10:59:04.636Z,10.60
2019-01-29T11:01:33.571Z,10.20
2019-01-29T11:04:02.579Z,10.40
2019-01-29T11:06:31.538Z,10.50
2019-01-29T11:09:00.549Z,10.40
2019-01-29T11:11:29.566Z,10.70
2019-01-29T11:13:58.492Z,10.60
2019-01-29T11:16:27.456Z,11.30
2019-01-29T11:19:03.086Z,11.30
2019-01-29T11:21:27.821Z,11.30
2019-01-29T11:23:56.756Z,10.80
2019-01-29T11:26:26.124Z,11.10
2019-01-29T11:28:55.059Z,11.60
2019-01-29T11:31:24.076Z,11.60
2019-01-29T11:33:53.008Z,11.30
2019-01-29T11:36:22.024Z,10.80
2019-01-29T11:38:50.888Z,11.00
2019-01-29T11:41:20.164Z,11.30
2019-01-29T11:43:49.184Z,10.70
2019-01-29T11:46:18.236Z,10.00
2019-01-29T11:48:47.180Z,9.40
2019-01-29T11:51:16.187Z,8.90
2019-01-29T11:53:45.107Z,8.40
2019-01-29T11:56:14.333Z,8.10
2019-01-29T11:58:43.193Z,8.00
2019-01-29T12:01:14.660Z,8.30
2019-01-29T12:03:43.878Z,8.20
2019-01-29T12:06:12.893Z,8.20
2019-01-29T12:08:41.909Z,8.00
2019-01-29T12:11:10.936Z,7.60
2019-01-29T12:13:40.254Z,7.40
2019-01-29T12:16:10.229Z,7.30
2019-01-29T12:18:39.238Z,7.20
2019-01-29T12:21:08.663Z,7.00
2019-01-29T12:23:37.880Z,7.00
2019-01-29T12:26:12.920Z,7.00
2019-01-29T12:28:37.901Z,7.00
2019-01-29T12:31:07.044Z,7.00
2019-01-29T12:33:36.233Z,7.00
2019-01-29T12:36:05.444Z,6.80
2019-01-29T12:38:34.385Z,6.80
2019-01-29T12:41:03.327Z,6.60
2019-01-29T12:43:32.473Z,6.50
2019-01-29T12:46:01.415Z,6.60
2019-01-29T12:48:30.433Z,6.70
2019-01-29T12:51:00.658Z,6.80
2019-01-29T12:53:36.136Z,6.70
2019-01-29T12:56:05.461Z,6.80
2019-01-29T12:58:34.704Z,6.90
2019-01-29T13:01:04.288Z,7.00
2019-01-29T13:03:33.641Z,7.10
2019-01-29T13:06:02.645Z,6.80
2019-01-29T13:08:31.680Z,6.80
2019-01-29T13:11:00.693Z,6.80
2019-01-29T13:13:30.029Z,6.60
2019-01-29T13:15:59.065Z,6.50
2019-01-29T13:18:28.001Z,6.50
2019-01-29T13:20:57.309Z,6.50
2019-01-29T13:23:26.516Z,6.50
2019-01-29T13:25:55.707Z,6.50
2019-01-29T13:28:25.001Z,6.30
2019-01-29T13:30:53.871Z,6.20
2019-01-29T13:33:22.804Z,6.20
2019-01-29T13:35:51.821Z,6.20
2019-01-29T13:38:20.846Z,6.10
2019-01-29T13:40:49.860Z,6.00
2019-01-29T13:43:19.074Z,6.00
2019-01-29T13:45:48.369Z,6.00
2019-01-29T13:48:17.664Z,5.90
2019-01-29T13:50:58.313Z,5.90
2019-01-29T13:53:27.333Z,5.90
2019-01-29T13:55:56.284Z,5.70
2019-01-29T13:58:25.302Z,5.80
2019-01-29T14:00:54.951Z,5.60
2019-01-29T14:03:23.893Z,5.70
2019-01-29T14:05:52.965Z,5.50
2019-01-29T14:08:21.926Z,5.50
2019-01-29T14:10:50.944Z,5.40
2019-01-29T14:13:20.201Z,5.40
2019-01-29T14:15:54.389Z,5.40
2019-01-29T14:18:25.600Z,5.40
2019-01-29T14:20:54.614Z,5.30
2019-01-29T14:23:23.493Z,5.40
2019-01-29T14:25:52.858Z,5.40
2019-01-29T14:28:22.155Z,5.50
2019-01-29T14:30:51.460Z,5.40
2019-01-29T14:33:21.074Z,5.30
2019-01-29T14:35:50.769Z,5.20
2019-01-29T14:39:06.165Z,5.20
2019-01-29T14:41:35.167Z,5.30
2019-01-29T14:44:06.095Z,5.30
2019-01-29T14:46:35.382Z,5.30
2019-01-29T14:49:04.652Z,5.30
2019-01-29T14:51:33.890Z,5.20
2019-01-29T14:54:02.932Z,5.20
2019-01-29T14:56:31.962Z,5.10
2019-01-29T14:59:00.980Z,5.10
2019-01-29T15:01:30.101Z,5.00
2019-01-29T15:03:59.121Z,5.00
2019-01-29T15:06:32.549Z,5.00
2019-01-29T15:08:59.839Z,5.00
2019-01-29T15:11:28.768Z,5.00
2019-01-29T15:13:58.111Z,5.00
2019-01-29T15:16:45.238Z,4.80
2019-01-29T15:19:24.866Z,4.70
2019-01-29T15:21:53.909Z,4.60
2019-01-29T15:24:23.485Z,4.80
2019-01-29T15:26:52.860Z,4.70
2019-01-29T15:29:22.738Z,4.60
2019-01-29T15:31:52.100Z,4.60
2019-01-29T15:34:21.379Z,4.60
2019-01-29T15:36:50.765Z,4.50
2019-01-29T15:39:19.782Z,4.40
2019-01-29T15:41:49.308Z,4.30
2019-01-29T15:44:18.509Z,4.20
2019-01-29T15:46:48.606Z,4.10
2019-01-29T15:49:17.769Z,4.10
2019-01-29T15:51:47.065Z,4.00
2019-01-29T15:54:52.679Z,3.80
2019-01-29T15:57:21.968Z,3.70
2019-01-29T15:59:51.574Z,3.60
2019-01-29T16:02:20.580Z,3.40
2019-01-29T16:04:49.868Z,3.30
2019-01-29T16:07:18.802Z,3.20
2019-01-29T16:09:47.747Z,3.30
2019-01-29T16:12:17.261Z,3.20
2019-01-29T16:14:46.592Z,3.40
2019-01-29T16:17:17.001Z,3.10
2019-01-29T16:19:46.510Z,3.10
2019-01-29T16:22:15.971Z,3.00
2019-01-29T16:24:45.099Z,3.00
2019-01-29T16:27:22.634Z,2.90
2019-01-29T16:29:47.192Z,2.70
2019-01-29T16:32:16.267Z,2.60
2019-01-29T16:34:45.882Z,2.50
2019-01-29T16:37:14.965Z,2.50
2019-01-29T16:39:44.378Z,2.40
2019-01-29T16:42:13.648Z,2.20
2019-01-29T16:44:42.840Z,2.20
2019-01-29T16:47:12.039Z,2.20
2019-01-29T16:49:41.485Z,2.10
2019-01-29T16:52:11.248Z,2.10
2019-01-29T16:54:40.201Z,2.00
2019-01-29T16:57:09.214Z,1.90
2019-01-29T16:59:38.702Z,1.80
2019-01-29T17:02:08.394Z,1.80
2019-01-29T17:04:38.102Z,1.70
2019-01-29T17:07:07.612Z,1.60
2019-01-29T17:09:38.203Z,1.50
2019-01-29T17:12:07.753Z,1.50
2019-01-29T17:14:36.840Z,1.50
2019-01-29T17:17:06.246Z,1.40
2019-01-29T17:19:35.649Z,1.40
2019-01-29T17:22:05.889Z,1.40
2019-01-29T17:24:35.232Z,1.30
2019-01-29T17:27:04.595Z,1.30
2019-01-29T17:29:34.365Z,1.40
2019-01-29T17:32:04.507Z,1.50
2019-01-29T17:34:33.776Z,1.60
2019-01-29T17:37:03.556Z,1.50
2019-01-29T17:39:33.225Z,1.30
2019-01-29T17:42:02.387Z,1.20
2019-01-29T17:44:31.505Z,1.10
2019-01-29T17:47:00.747Z,1.10
2019-01-29T17:49:30.551Z,1.10
2019-01-29T17:51:59.942Z,1.00
2019-01-29T17:54:29.544Z,1.00
2019-01-29T17:56:59.660Z,0.80
2019-01-29T17:59:29.084Z,0.60
2019-01-29T18:01:59.293Z,0.50
2019-01-29T18:04:28.950Z,0.40
2019-01-29T18:06:58.720Z,0.40
2019-01-29T18:09:29.220Z,0.30
2019-01-29T18:11:59.381Z,0.20
2019-01-29T18:14:29.502Z,0.50
2019-01-29T18:16:59.868Z,0.50
2019-01-29T18:19:29.832Z,0.60
2019-01-29T18:21:59.942Z,0.70
2019-01-29T18:24:29.856Z,0.60
2019-01-29T18:27:00.401Z,0.60
2019-01-29T18:29:31.077Z,0.60
2019-01-29T18:32:01.997Z,0.50
2019-01-29T18:34:31.723Z,0.30
2019-01-29T18:37:01.886Z,0.10
2019-01-29T18:39:32.668Z,0.20
2019-01-29T18:42:02.700Z,0.10
2019-01-29T18:44:32.860Z,0.20
2019-01-29T18:47:03.502Z,0.30
2019-01-29T18:49:34.525Z,0.10
2019-01-29T18:52:05.167Z,0.00
2019-01-29T18:54:35.090Z,0.10
2019-01-29T18:57:04.848Z,0.30
2019-01-29T18:59:35.516Z,0.30
2019-01-29T19:02:05.908Z,0.40
2019-01-29T19:04:36.685Z,0.50
2019-01-29T19:07:07.728Z,0.50
2019-01-29T19:09:38.145Z,0.40
2019-01-29T19:12:08.632Z,0.30
2019-01-29T19:14:39.448Z,0.20
2019-01-29T19:17:10.513Z,0.20
2019-01-29T19:19:41.288Z,0.10
2019-01-29T19:22:12.229Z,0.00
2019-01-29T19:24:43.382Z,-0.10
2019-01-29T19:27:14.469Z,0.00
2019-01-29T19:29:45.242Z,-0.10
2019-01-29T19:32:15.972Z,-0.20
2019-01-29T19:34:46.812Z,-0.20
2019-01-29T19:37:18.033Z,-0.20
2019-01-29T19:39:49.040Z,-0.20
2019-01-29T19:42:27.356Z,-0.20
2019-01-29T19:44:51.814Z,-0.20
2019-01-29T19:47:22.245Z,-0.20
2019-01-29T19:49:52.455Z,-0.20
2019-01-29T19:52:23.508Z,-0.30
2019-01-29T19:54:55.693Z,-0.40
2019-01-29T19:57:26.762Z,-0.30
2019-01-29T19:59:57.636Z,-0.30
2019-01-29T20:02:28.813Z,-0.30
2019-01-29T20:04:59.658Z,-0.30
2019-01-29T20:07:30.555Z,-0.30
2019-01-29T20:10:02.121Z,-0.30
2019-01-29T20:12:33.613Z,-0.10
2019-01-29T20:15:04.620Z,-0.10
2019-01-29T20:17:35.697Z,-0.20
2019-01-29T20:20:06.913Z,-0.30
2019-01-29T20:22:37.882Z,-0.30
2019-01-29T20:25:08.312Z,-0.30
2019-01-29T20:27:38.118Z,-0.30
2019-01-29T20:30:11.491Z,-0.40
2019-01-29T20:32:41.105Z,-0.30
2019-01-29T20:35:10.734Z,-0.30
2019-01-29T20:37:39.992Z,-0.30
2019-01-29T20:40:11.904Z,-0.50
2019-01-29T20:42:41.024Z,-0.40
2019-01-29T20:45:11.455Z,-0.30
2019-01-29T20:47:40.992Z,-0.60
2019-01-29T20:50:14.316Z,-0.70
2019-01-29T20:52:43.353Z,-0.50
2019-01-29T20:55:12.390Z,-0.40
2019-01-29T20:57:41.499Z,-0.40
2019-01-29T21:00:17.421Z,-0.20
2019-01-29T21:02:46.441Z,-0.40
2019-01-29T21:05:15.930Z,-0.40
2019-01-29T21:07:44.957Z,-0.60
2019-01-29T21:10:16.810Z,-0.60
2019-01-29T21:12:45.902Z,-0.50
2019-01-29T21:15:16.488Z,-0.30
2019-01-29T21:17:45.915Z,-0.20
2019-01-29T21:20:17.252Z,-0.10
2019-01-29T21:22:46.689Z,-0.20
2019-01-29T21:25:15.802Z,-0.10
2019-01-29T21:27:45.070Z,-0.10
2019-01-29T21:30:26.143Z,-0.30
2019-01-29T21:32:55.232Z,-0.30
2019-01-29T21:35:24.285Z,-0.30
2019-01-29T21:37:53.283Z,-0.30
2019-01-29T21:40:22.305Z,-0.50
2019-01-29T21:42:51.623Z,-0.40
2019-01-29T21:45:20.652Z,-0.40
2019-01-29T21:47:50.024Z,-0.70
2019-01-29T21:50:21.585Z,-0.80
2019-01-29T21:52:50.592Z,-0.70
2019-01-29T21:55:19.917Z,-0.70
2019-01-29T21:57:48.844Z,-0.70
2019-01-29T22:00:22.095Z,-0.80
2019-01-29T22:02:51.109Z,-0.80
2019-01-29T22:05:20.145Z,-0.70
2019-01-29T22:07:49.493Z,-0.80
2019-01-29T22:10:18.632Z,-0.80
2019-01-29T22:12:48.077Z,-0.70
2019-01-29T22:15:17.397Z,-0.80
2019-01-29T22:17:46.402Z,-0.90
2019-01-29T22:20:17.775Z,-0.90
2019-01-29T22:22:46.784Z,-0.90
2019-01-29T22:25:17.199Z,-0.80
2019-01-29T22:27:46.547Z,-0.90
2019-01-29T22:30:18.648Z,-1.00
2019-01-29T22:32:47.670Z,-1.10
2019-01-29T22:35:16.936Z,-1.00
2019-01-29T22:37:46.238Z,-1.10
2019-01-29T22:40:20.285Z,-0.90
2019-01-29T22:42:50.144Z,-0.90
2019-01-29T22:45:19.165Z,-1.00
2019-01-29T22:47:48.444Z,-0.80
2019-01-29T22:50:25.241Z,-0.80
2019-01-29T22:52:54.258Z,-0.60
2019-01-29T22:55:23.288Z,-0.60
2019-01-29T22:57:52.343Z,-0.60
2019-01-29T23:00:54.150Z,-0.60
2019-01-29T23:03:25.906Z,-0.70
2019-01-29T23:06:34.748Z,-0.70
2019-01-29T23:09:06.819Z,-0.80
2019-01-29T23:11:36.113Z,-0.70
2019-01-29T23:14:06.001Z,-0.60
2019-01-29T23:16:35.149Z,-0.70
2019-01-29T23:19:04.332Z,-0.70
2019-01-29T23:21:33.352Z,-0.60
2019-01-29T23:24:02.636Z,-0.60
2019-01-29T23:26:31.926Z,-0.50
2019-01-29T23:29:00.860Z,-0.40
2019-01-29T23:31:30.196Z,-0.40
2019-01-29T23:33:59.204Z,-0.40
2019-01-29T23:36:28.226Z,-0.40
2019-01-29T23:38:57.243Z,-0.40
2019-01-29T23:41:26.268Z,-0.30
2019-01-29T23:43:55.284Z,-0.20
2019-01-29T23:46:24.582Z,-0.20
2019-01-29T23:48:53.585Z,0.00
2019-01-29T23:51:22.616Z,0.00
2019-01-29T23:53:51.622Z,0.10
2019-01-29T23:56:20.581Z,0.20
2019-01-29T23:58:49.753Z,0.30
